Terminal Aerodrome Forecast
Issued by NWS

Home | Current Version | Previous Version | Text Only | Print | Product List | Glossary On
Versions: 1 2 3 4 5 6 7 8 9 10 11 12 13 14 15 16 17 18 19 20 21 22
000
FTAK31 PANC 240104 AAA
TAFACD
TAF AMD
PACD 240104Z 2401/2424 33015KT P6SM VCSH SCT025 BKN050
      TEMPO 2401/2403 33018G28KT 2SM -SHSN BKN015
     FM240300 34018G28KT 3SM -SHSN BKN025 OVC030
      TEMPO 2403/2406 1 1/2SM -SHSN BKN009
     FM241200 34015G22KT 2SM -SHSN SCT010 BKN020=

USA.gov is the U.S. government's official web portal to all federal, state and local government web resources and services.